Time;durP1;ratioP1;P1;durP2;ratioP2;P2;SDS_P1;SDS_P2;PMS_P1;PMS_P2;Temp;Humidity;BMP_temperature;BMP_pressure;BME280_temperature;BME280_humidity;BME280_pressure;Samples;Min_cycle;Max_cycle;Signal;HPM_P1;HPM_P2
2021/04/07 05:22:47;;;;;;;10.75;6.42;;;;;;;5.72;80.23;98299.20;1826813;77;26012;-57
2021/04/07 05:25:20;;;;;;;14.70;6.75;;;;;;;5.71;80.12;98304.05;1793612;80;21568;-62
2021/04/07 05:27:49;;;;;;;9.43;5.97;;;;;;;5.75;80.21;98309.23;1771390;80;21295;-60
2021/04/07 05:30:20;;;;;;;11.57;6.12;;;;;;;5.84;80.17;98304.89;1795427;78;21609;-58
2021/04/07 05:32:49;;;;;;;9.88;5.80;;;;;;;5.90;80.08;98302.45;1808652;78;22360;-60
2021/04/07 05:35:17;;;;;;;12.78;6.67;;;;;;;6.00;79.96;98297.61;1800629;78;21557;-61
2021/04/07 05:37:46;;;;;;;10.45;5.55;;;;;;;6.04;79.91;98291.14;1793680;80;21580;-60
2021/04/07 05:40:15;;;;;;;7.65;4.53;;;;;;;6.14;79.75;98290.46;1793824;80;21617;-60
2021/04/07 05:42:46;;;;;;;8.80;4.92;;;;;;;6.18;79.50;98288.69;1794090;78;21139;-60
2021/04/07 05:45:15;;;;;;;7.55;5.28;;;;;;;6.29;79.27;98291.92;1792451;78;21196;-60
2021/04/07 05:47:44;;;;;;;8.73;5.42;;;;;;;6.40;78.92;98298.88;1794536;78;21135;-60
2021/04/07 05:50:13;;;;;;;7.87;5.37;;;;;;;6.48;78.54;98289.77;1795030;78;21522;-62
2021/04/07 05:52:42;;;;;;;9.53;6.37;;;;;;;6.50;78.42;98285.70;1793396;78;21164;-59
2021/04/07 05:55:13;;;;;;;7.08;5.15;;;;;;;6.59;78.29;98282.61;1800464;78;21147;-65
2021/04/07 05:57:42;;;;;;;8.13;5.58;;;;;;;6.68;78.04;98279.81;1795213;78;21268;-61
2021/04/07 06:00:11;;;;;;;10.03;5.37;;;;;;;6.78;77.47;98282.22;1803034;78;21600;-61
2021/04/07 06:02:40;;;;;;;9.60;6.15;;;;;;;6.83;77.00;98275.20;1791886;80;21338;-60
2021/04/07 06:05:10;;;;;;;9.40;6.33;;;;;;;6.84;76.76;98274.25;1792473;80;21185;-60
2021/04/07 06:07:39;;;;;;;10.85;6.00;;;;;;;6.88;76.58;98280.70;1793394;78;21138;-60
2021/04/07 06:10:09;;;;;;;9.93;6.45;;;;;;;6.89;76.41;98274.53;1792973;78;21201;-61
2021/04/07 06:12:38;;;;;;;11.43;5.85;;;;;;;6.91;76.28;98266.91;1780889;80;21171;-61
2021/04/07 06:15:08;;;;;;;8.28;5.62;;;;;;;6.95;75.84;98266.06;1761486;81;21174;-61
2021/04/07 06:17:40;;;;;;;11.10;6.85;;;;;;;6.96;75.68;98258.13;1762066;81;21763;-60
2021/04/07 06:20:10;;;;;;;14.93;7.10;;;;;;;7.03;75.51;98256.16;1762553;81;21558;-58
2021/04/07 06:22:39;;;;;;;10.18;5.45;;;;;;;7.07;75.07;98256.92;1764008;81;21129;-59
2021/04/07 06:25:09;;;;;;;9.60;5.33;;;;;;;7.13;74.71;98254.13;1762407;81;21615;-58
2021/04/07 06:27:38;;;;;;;11.08;6.87;;;;;;;7.18;74.42;98257.84;1762033;81;21331;-59
2021/04/07 06:30:07;;;;;;;10.30;7.15;;;;;;;7.25;74.18;98258.77;1762758;81;21577;-56
2021/04/07 06:32:36;;;;;;;9.33;5.75;;;;;;;7.33;73.87;98254.49;1762240;81;21152;-60
2021/04/07 06:35:06;;;;;;;9.35;6.10;;;;;;;7.35;73.46;98257.75;1762282;81;21537;-62
2021/04/07 06:37:34;;;;;;;9.65;6.05;;;;;;;7.36;73.42;98255.47;1767632;81;21570;-58
2021/04/07 06:40:05;;;;;;;10.90;5.85;;;;;;;7.38;73.29;98256.09;1768336;81;21592;-60
2021/04/07 06:42:34;;;;;;;10.13;5.83;;;;;;;7.42;73.10;98268.58;1758975;81;21145;-57
2021/04/07 06:45:03;;;;;;;9.85;5.95;;;;;;;7.42;72.74;98266.47;1770850;81;21678;-56
2021/04/07 06:47:32;;;;;;;9.60;6.08;;;;;;;7.35;72.73;98269.44;1769847;81;21289;-58
2021/04/07 06:50:01;;;;;;;7.97;5.78;;;;;;;7.32;72.78;98272.37;1769620;81;21527;-59
2021/04/07 06:52:30;;;;;;;10.78;6.30;;;;;;;7.29;72.67;98269.64;1763221;81;21117;-58
2021/04/07 06:54:58;;;;;;;9.78;6.28;;;;;;;7.30;72.69;98267.35;1760898;81;21690;-59
2021/04/07 06:57:27;;;;;;;10.45;6.95;;;;;;;7.37;72.71;98270.87;1769201;81;21561;-59
2021/04/07 06:59:56;;;;;;;10.10;6.40;;;;;;;7.44;72.67;98266.60;1718997;81;21571;-58
2021/04/07 07:02:25;;;;;;;10.25;6.45;;;;;;;7.48;72.52;98268.38;1763421;81;21729;-63
2021/04/07 07:04:53;;;;;;;9.98;6.15;;;;;;;7.49;72.28;98274.70;1761629;81;22327;-63
2021/04/07 07:07:22;;;;;;;9.88;6.60;;;;;;;7.53;72.30;98275.17;1760715;81;21633;-62
2021/04/07 07:09:53;;;;;;;10.10;5.70;;;;;;;7.50;72.23;98273.70;1743738;81;21149;-61
2021/04/07 07:12:24;;;;;;;11.00;6.25;;;;;;;7.50;72.19;98277.61;1741728;82;21644;-63
2021/04/07 07:14:53;;;;;;;10.53;6.33;;;;;;;7.54;72.31;98278.89;1741316;81;21163;-63
2021/04/07 07:17:31;;;;;;;10.78;6.70;;;;;;;7.61;72.23;98279.50;1751252;80;21112;-63
2021/04/07 07:20:02;;;;;;;10.75;6.00;;;;;;;7.66;71.81;98274.10;1778284;80;21168;-63
2021/04/07 07:22:31;;;;;;;26.00;7.67;;;;;;;7.72;71.50;98276.00;1754199;80;21191;-63
2021/04/07 07:25:01;;;;;;;12.50;7.42;;;;;;;7.74;71.45;98277.13;1748995;80;21669;-63
2021/04/07 07:27:39;;;;;;;17.40;6.50;;;;;;;7.77;71.32;98278.09;1774490;80;21643;-61
2021/04/07 07:30:12;;;;;;;13.98;6.83;;;;;;;7.77;71.38;98282.80;1755575;80;21131;-63
2021/04/07 07:32:43;;;;;;;13.05;7.08;;;;;;;7.79;71.32;98290.41;1748959;80;21571;-63
2021/04/07 07:35:16;;;;;;;14.65;7.92;;;;;;;7.81;70.92;98292.34;1748352;82;21144;-59
2021/04/07 07:37:45;;;;;;;18.05;9.38;;;;;;;7.66;70.63;98287.09;1757657;80;21157;-63
2021/04/07 07:40:20;;;;;;;17.77;7.95;;;;;;;7.58;71.00;98294.96;1766601;81;21195;-59
2021/04/07 07:42:50;;;;;;;17.17;8.45;;;;;;;7.57;71.13;98290.72;1767930;80;21135;-64
2021/04/07 07:45:31;;;;;;;13.15;8.40;;;;;;;7.48;71.16;98292.58;1775445;81;21171;-60
2021/04/07 07:48:04;;;;;;;14.13;7.78;;;;;;;7.48;71.51;98293.06;1778662;81;21171;-62
2021/04/07 07:50:39;;;;;;;13.15;8.90;;;;;;;7.49;71.61;98294.19;1775689;81;21123;-64
2021/04/07 07:53:21;;;;;;;16.02;8.28;;;;;;;7.49;71.68;98295.98;1748020;81;21339;-64
2021/04/07 07:55:53;;;;;;;17.30;8.28;;;;;;;7.46;71.83;98300.23;1753014;81;21154;-60
2021/04/07 07:58:26;;;;;;;14.58;8.28;;;;;;;7.48;71.88;98303.46;1753301;82;21154;-58
2021/04/07 08:01:06;;;;;;;14.28;8.53;;;;;;;7.35;71.69;98292.83;1792547;80;21197;-64
2021/04/07 08:03:34;;;;;;;15.03;8.68;;;;;;;7.26;72.28;98295.45;1782313;80;21147;-61
2021/04/07 08:06:05;;;;;;;12.70;7.90;;;;;;;7.25;72.55;98294.33;1754662;80;21203;-60
2021/04/07 08:08:35;;;;;;;14.87;8.13;;;;;;;7.24;72.68;98290.92;1753702;81;21151;-62
2021/04/07 08:11:07;;;;;;;13.15;7.53;;;;;;;7.23;72.96;98294.51;1778240;81;21970;-61
2021/04/07 08:13:40;;;;;;;13.20;9.25;;;;;;;7.25;73.04;98291.73;1778662;81;21151;-58
2021/04/07 08:16:12;;;;;;;15.25;9.65;;;;;;;7.20;73.27;98283.14;1779165;81;21531;-60
2021/04/07 08:18:40;;;;;;;15.98;8.73;;;;;;;7.20;73.56;98285.73;1779178;81;21182;-59
2021/04/07 08:21:10;;;;;;;13.88;8.70;;;;;;;7.13;73.76;98283.51;1778735;81;21163;-61
2021/04/07 08:23:39;;;;;;;12.63;8.33;;;;;;;7.08;74.21;98274.14;1708002;81;21917;-57
2021/04/07 08:26:07;;;;;;;20.62;8.00;;;;;;;7.11;74.40;98275.09;1748911;81;21666;-59
2021/04/07 08:28:41;;;;;;;12.30;8.88;;;;;;;7.12;74.52;98275.89;1767646;81;21547;-59
2021/04/07 08:31:13;;;;;;;14.18;8.78;;;;;;;7.14;74.83;98276.06;1745492;81;21175;-60
2021/04/07 08:33:46;;;;;;;13.10;9.03;;;;;;;7.19;74.75;98273.73;1764482;80;21142;-61
2021/04/07 08:36:18;;;;;;;16.52;9.10;;;;;;;7.18;74.88;98273.42;1733230;82;21587;-59
2021/04/07 08:38:47;;;;;;;13.62;8.73;;;;;;;7.25;75.05;98269.65;1749118;81;21158;-60
2021/04/07 08:41:23;;;;;;;15.43;8.28;;;;;;;7.26;75.02;98276.45;1747715;82;21198;-61
2021/04/07 08:43:53;;;;;;;19.50;8.70;;;;;;;7.28;75.33;98273.22;1749573;80;21280;-56
2021/04/07 08:46:26;;;;;;;13.10;9.20;;;;;;;7.39;75.48;98278.48;1778777;80;21158;-60
2021/04/07 08:48:55;;;;;;;15.25;9.28;;;;;;;7.48;75.36;98280.88;1776023;81;21131;-60
2021/04/07 08:51:26;;;;;;;16.32;9.13;;;;;;;7.53;75.27;98280.37;1748642;81;21186;-58
2021/04/07 08:53:57;;;;;;;18.15;10.45;;;;;;;7.58;75.20;98277.23;1695579;82;21745;-58
2021/04/07 08:56:31;;;;;;;20.02;9.90;;;;;;;7.55;75.20;98270.11;1748462;82;21127;-58
2021/04/07 08:59:02;;;;;;;21.75;13.15;;;;;;;7.55;75.18;98273.20;1747900;82;21175;-57
2021/04/07 09:01:36;;;;;;;17.60;10.28;;;;;;;7.49;75.43;98280.39;1748300;82;21350;-57
2021/04/07 09:04:19;;;;;;;16.95;11.60;;;;;;;7.52;75.61;98282.16;1748067;82;21291;-58
2021/04/07 09:07:01;;;;;;;14.83;10.05;;;;;;;7.57;75.68;98279.02;1748236;82;21607;-60
2021/04/07 09:09:36;;;;;;;15.53;8.38;;;;;;;7.60;75.78;98271.39;1748084;82;21140;-57
2021/04/07 09:12:06;;;;;;;14.63;8.90;;;;;;;7.55;75.86;98270.11;1748166;82;21208;-57
2021/04/07 09:19:17;;;;;;;15.68;10.48;;;;;;;7.49;76.45;98275.19;1742580;81;21146;-59
2021/04/07 09:22:08;;;;;;;15.43;9.78;;;;;;;7.40;77.07;98272.34;1740157;82;21829;-61
2021/04/07 09:24:40;;;;;;;21.37;11.53;;;;;;;7.35;77.34;98273.34;1746791;82;21151;-63
2021/04/07 09:27:25;;;;;;;15.40;9.80;;;;;;;7.33;77.52;98270.09;1771582;80;22068;-60
2021/04/07 09:34:32;;;;;;;19.87;10.98;;;;;;;7.23;77.99;98267.23;1765226;80;21138;-58
2021/04/07 09:37:01;;;;;;;30.00;17.23;;;;;;;7.18;78.54;98264.33;1772203;80;21563;-58
2021/04/07 09:39:29;;;;;;;18.32;11.22;;;;;;;7.16;78.41;98268.09;1773155;80;21629;-59
2021/04/07 09:41:58;;;;;;;13.68;9.30;;;;;;;7.14;78.61;98263.53;1787266;80;21787;-63
2021/04/07 09:44:30;;;;;;;12.75;8.65;;;;;;;7.12;78.67;98262.42;1757532;80;21155;-61
2021/04/07 09:46:59;;;;;;;13.22;9.30;;;;;;;7.08;78.88;98257.27;1737712;81;21673;-63
2021/04/07 09:49:30;;;;;;;15.43;10.55;;;;;;;7.08;79.17;98258.56;1778891;80;21645;-62
2021/04/07 09:51:58;;;;;;;12.23;8.38;;;;;;;7.14;79.63;98264.84;1779166;81;21348;-63
2021/04/07 09:54:30;;;;;;;11.33;8.63;;;;;;;7.23;79.51;98271.13;1778791;81;21349;-58
2021/04/07 09:57:03;;;;;;;9.90;6.00;;;;;;;7.19;79.30;98272.44;1778805;80;21583;-61
2021/04/07 09:59:41;;;;;;;8.30;4.58;;;;;;;7.07;77.50;98282.89;1778973;81;21135;-61
2021/04/07 10:02:13;;;;;;;8.25;5.05;;;;;;;6.86;75.66;98279.59;1778983;81;21187;-61
2021/04/07 10:04:45;;;;;;;6.15;4.22;;;;;;;6.48;75.46;98287.66;1775872;81;21182;-62
2021/04/07 10:07:27;;;;;;;5.80;4.12;;;;;;;6.16;76.06;98284.16;1779723;80;21570;-61
2021/04/07 10:09:59;;;;;;;16.00;9.00;;;;;;;5.67;77.06;98294.50;1779771;80;21576;-61
2021/04/07 10:12:30;;;;;;;11.80;6.85;;;;;;;5.67;77.06;98294.50;1779784;80;22054;-61
2021/04/07 10:15:02;;;;;;;7.62;4.97;;;;;;;5.51;77.81;98304.83;1779540;81;21174;-61
2021/04/07 10:17:32;;;;;;;14.87;8.38;;;;;;;5.43;78.05;98300.94;1779746;81;21590;-57
2021/04/07 10:20:14;;;;;;;12.40;7.42;;;;;;;5.31;78.38;98303.50;1779929;81;21243;-58
2021/04/07 10:22:46;;;;;;;10.32;6.95;;;;;;;5.16;78.76;98307.69;1777617;81;21190;-58
2021/04/07 10:25:19;;;;;;;8.90;5.47;;;;;;;5.05;79.25;98314.76;1774076;81;21120;-60
2021/04/07 10:27:49;;;;;;;8.10;5.05;;;;;;;5.03;79.55;98317.16;1774264;80;21579;-61
2021/04/07 10:30:20;;;;;;;7.75;5.05;;;;;;;4.98;79.56;98318.94;1771714;80;21588;-62
2021/04/07 10:32:50;;;;;;;7.58;4.97;;;;;;;4.98;79.75;98311.17;1760396;81;21167;-60
2021/04/07 10:35:25;;;;;;;8.70;6.22;;;;;;;4.96;79.83;98313.58;1758508;81;21269;-61
2021/04/07 10:40:47;;;;;;;6.70;4.78;;;;;;;4.94;80.43;98316.33;1826496;77;22642;-59
2021/04/07 10:43:19;;;;;;;7.30;5.05;;;;;;;4.90;80.34;98305.14;1793350;80;21142;-58
2021/04/07 10:46:02;;;;;;;7.95;4.90;;;;;;;4.88;80.20;98305.78;1793424;80;21606;-59
2021/04/07 10:48:35;;;;;;;7.90;4.78;;;;;;;4.82;79.82;98306.73;1794415;78;21138;-57
2021/04/07 10:51:05;;;;;;;8.05;5.20;;;;;;;4.75;80.13;98305.73;1796887;78;21327;-58
2021/04/07 10:53:38;;;;;;;12.43;7.08;;;;;;;4.73;80.32;98299.10;1795893;78;21641;-58
2021/04/07 10:56:17;;;;;;;4.75;3.47;;;;;;;4.72;80.54;98312.52;1792222;80;21187;-61
2021/04/07 10:58:57;;;;;;;6.10;4.45;;;;;;;4.71;80.50;98321.23;1792896;80;21293;-56
2021/04/07 11:01:31;;;;;;;5.12;3.80;;;;;;;4.66;80.34;98309.26;1793275;78;21582;-61
2021/04/07 11:04:15;;;;;;;6.53;4.40;;;;;;;4.64;80.24;98307.77;1793376;80;21147;-61
2021/04/07 11:06:44;;;;;;;9.45;3.60;;;;;;;4.57;80.23;98308.38;1792478;80;21175;-57
2021/04/07 11:09:13;;;;;;;4.60;3.22;;;;;;;4.52;80.34;98318.38;1791556;80;21151;-58
2021/04/07 11:11:43;;;;;;;5.78;3.45;;;;;;;4.45;80.27;98321.25;1772431;80;21166;-59
2021/04/07 11:35:40;;;;;;;4.65;3.58;;;;;;;4.38;79.38;98333.17;1757071;81;22397;-55
2021/04/07 11:38:07;;;;;;;4.45;3.45;;;;;;;4.30;79.90;98326.17;1756088;80;21141;-55
2021/04/07 11:40:47;;;;;;;10.70;6.10;;;;;;;4.21;80.28;98330.13;1753578;81;21585;-55
2021/04/07 11:43:14;;;;;;;7.42;4.08;;;;;;;4.18;80.61;98331.26;1761731;80;21619;-55
